Time;durP1;ratioP1;P1;durP2;ratioP2;P2;SDS_P1;SDS_P2;PMS_P1;PMS_P2;Temp;Humidity;BMP_temperature;BMP_pressure;BME280_temperature;BME280_humidity;BME280_pressure;Samples;Min_cycle;Max_cycle;Signal;HPM_P1;HPM_P2
2023/09/11 00:02:57;;;;;;;7.55;5.03;;;;;;;;;;6382417;27;20094;-68
2023/09/11 00:06:06;;;;;;;6.60;4.60;;;;;;;;;;6385122;27;20236;-67
2023/09/11 00:09:08;;;;;;;5.47;4.60;;;;;;;;;;6391638;27;20775;-68
2023/09/11 00:12:10;;;;;;;6.38;4.80;;;;;;;;;;6381128;27;20032;-68
2023/09/11 00:15:12;;;;;;;6.43;4.93;;;;;;;;;;6388439;27;20054;-69
2023/09/11 00:18:14;;;;;;;9.35;7.00;;;;;;;;;;6381552;27;20113;-69
2023/09/11 00:21:16;;;;;;;8.40;4.13;;;;;;;;;;6390225;27;20035;-67
2023/09/11 00:24:18;;;;;;;5.90;4.95;;;;;;;;;;6385400;27;20039;-70
2023/09/11 00:27:20;;;;;;;7.82;5.43;;;;;;;;;;6386735;27;20066;-69
2023/09/11 00:30:22;;;;;;;6.55;4.68;;;;;;;;;;6372790;27;20039;-69
2023/09/11 00:33:24;;;;;;;5.05;4.38;;;;;;;;;;6373631;27;20049;-68
2023/09/11 00:36:27;;;;;;;5.88;4.35;;;;;;;;;;6368608;27;20047;-67
2023/09/11 00:39:29;;;;;;;6.90;4.93;;;;;;;;;;6365902;27;20043;-69
2023/09/11 00:42:31;;;;;;;12.35;2.38;;;;;;;;;;6376776;27;20306;-69
2023/09/11 00:45:33;;;;;;;7.03;4.88;;;;;;;;;;6381414;27;20137;-68
2023/09/11 00:48:35;;;;;;;5.03;4.53;;;;;;;;;;6374002;27;20060;-69
2023/09/11 00:51:37;;;;;;;4.95;3.85;;;;;;;;;;6389563;27;20031;-68
2023/09/11 00:54:39;;;;;;;8.13;4.05;;;;;;;;;;6382299;27;20043;-67
2023/09/11 00:57:43;;;;;;;6.03;5.43;;;;;;;;;;6367098;27;20050;-68
2023/09/11 01:00:46;;;;;;;7.70;4.78;;;;;;;;;;6345236;27;20042;-68
2023/09/11 01:03:49;;;;;;;6.47;5.90;;;;;;;;;;6344868;27;20073;-68
2023/09/11 01:06:51;;;;;;;7.22;4.68;;;;;;;;;;6361689;27;20517;-68
2023/09/11 01:09:54;;;;;;;5.82;4.93;;;;;;;;;;6372807;27;20035;-68
2023/09/11 01:12:56;;;;;;;5.70;5.20;;;;;;;;;;6351539;27;20049;-68
2023/09/11 01:16:02;;;;;;;7.40;4.63;;;;;;;;;;6382602;27;20062;-69
2023/09/11 01:19:08;;;;;;;8.13;4.80;;;;;;;;;;6361291;27;20536;-68
2023/09/11 01:22:25;;;;;;;;;;;;;;;;;;6365049;27;20042;-69
2023/09/11 01:25:45;;;;;;;4.65;3.65;;;;;;;;;;6362719;27;19966;-69
2023/09/11 01:29:12;;;;;;;5.35;2.00;;;;;;;;;;6384492;27;20410;-69
2023/09/11 01:32:17;;;;;;;4.95;3.58;;;;;;;;;;6388480;27;20042;-69
2023/09/11 01:35:20;;;;;;;4.85;4.35;;;;;;;;;;6371336;27;20050;-69
2023/09/11 01:38:22;;;;;;;6.15;5.07;;;;;;;;;;6385268;27;20054;-69
2023/09/11 01:41:27;;;;;;;4.65;3.03;;;;;;;;;;6360137;27;20873;-69
2023/09/11 01:44:43;;;;;;;4.93;4.43;;;;;;;;;;6361486;27;20050;-70
2023/09/11 01:47:47;;;;;;;7.03;4.03;;;;;;;;;;6383225;27;20050;-69
2023/09/11 01:50:49;;;;;;;6.60;5.95;;;;;;;;;;6369296;27;20536;-69
2023/09/11 01:53:51;;;;;;;5.00;4.50;;;;;;;;;;6342044;27;20038;-69
2023/09/11 01:56:54;;;;;;;6.82;5.38;;;;;;;;;;6368705;27;20528;-69
2023/09/11 01:59:56;;;;;;;6.30;4.65;;;;;;;;;;6352902;27;20047;-69
2023/09/11 02:02:58;;;;;;;7.60;4.32;;;;;;;;;;6367515;27;20039;-68
2023/09/11 02:06:01;;;;;;;6.88;5.15;;;;;;;;;;6359945;27;20043;-69
2023/09/11 02:09:04;;;;;;;5.25;4.47;;;;;;;;;;6378784;27;20047;-69
2023/09/11 02:12:07;;;;;;;5.68;4.28;;;;;;;;;;6360181;27;20049;-68
2023/09/11 02:15:09;;;;;;;7.18;4.18;;;;;;;;;;6360947;27;20043;-68
2023/09/11 02:18:11;;;;;;;6.57;4.32;;;;;;;;;;6359126;27;20043;-68
2023/09/11 02:21:13;;;;;;;8.05;6.60;;;;;;;;;;6387136;27;20047;-68
2023/09/11 02:24:15;;;;;;;4.50;4.10;;;;;;;;;;6383938;27;20078;-69
2023/09/11 02:27:17;;;;;;;7.90;7.10;;;;;;;;;;6389664;27;20051;-68
2023/09/11 02:30:19;;;;;;;5.55;4.65;;;;;;;;;;6374159;27;20053;-67
2023/09/11 02:33:21;;;;;;;6.05;4.13;;;;;;;;;;6381277;27;20035;-68
2023/09/11 02:36:24;;;;;;;5.85;4.45;;;;;;;;;;6356507;27;20081;-69
2023/09/11 02:39:26;;;;;;;4.65;4.20;;;;;;;;;;6377732;27;20046;-68
2023/09/11 02:42:28;;;;;;;4.57;1.92;;;;;;;;;;6388477;27;20567;-68
2023/09/11 02:45:30;;;;;;;5.25;4.75;;;;;;;;;;6365355;27;20070;-69
2023/09/11 02:48:32;;;;;;;8.15;5.07;;;;;;;;;;6383286;27;20063;-69
2023/09/11 02:51:35;;;;;;;7.57;3.85;;;;;;;;;;6369656;27;20644;-69
2023/09/11 02:54:37;;;;;;;4.40;4.00;;;;;;;;;;6364926;27;20155;-71
2023/09/11 02:57:44;;;;;;;8.40;4.25;;;;;;;;;;6371131;27;20110;-70
2023/09/11 03:00:46;;;;;;;4.78;4.13;;;;;;;;;;6367098;27;20070;-68
2023/09/11 03:03:48;;;;;;;5.97;4.65;;;;;;;;;;6383252;27;20513;-68
2023/09/11 03:06:50;;;;;;;5.78;5.22;;;;;;;;;;6388091;27;20134;-68
2023/09/11 03:09:52;;;;;;;4.53;3.83;;;;;;;;;;6383064;27;20043;-68
2023/09/11 03:12:55;;;;;;;5.55;5.05;;;;;;;;;;6379192;27;20046;-71
2023/09/11 03:16:11;;;;;;;4.93;4.47;;;;;;;;;;6353196;27;20043;-68
2023/09/11 03:19:15;;;;;;;6.57;4.10;;;;;;;;;;6359135;27;20057;-68
2023/09/11 03:22:17;;;;;;;6.18;4.55;;;;;;;;;;6357619;27;20050;-69
2023/09/11 03:25:19;;;;;;;8.57;4.38;;;;;;;;;;6361743;27;20058;-69
2023/09/11 03:28:24;;;;;;;6.70;5.90;;;;;;;;;;6380558;27;20145;-68
2023/09/11 03:31:26;;;;;;;6.30;4.47;;;;;;;;;;6382429;27;20056;-68
2023/09/11 03:34:29;;;;;;;5.90;3.13;;;;;;;;;;6386089;27;21039;-67
2023/09/11 03:37:31;;;;;;;5.70;4.57;;;;;;;;;;6358066;27;20043;-67
2023/09/11 03:40:33;;;;;;;5.57;4.10;;;;;;;;;;6357216;27;20051;-68
2023/09/11 03:43:36;;;;;;;6.80;5.38;;;;;;;;;;6360178;27;20660;-69
2023/09/11 03:46:38;;;;;;;7.05;4.82;;;;;;;;;;6358242;27;20043;-68
2023/09/11 03:49:40;;;;;;;6.10;5.57;;;;;;;;;;6369334;27;20043;-69
2023/09/11 03:52:42;;;;;;;8.80;6.72;;;;;;;;;;6373676;27;20484;-69
2023/09/11 03:55:44;;;;;;;7.18;5.65;;;;;;;;;;6349571;27;20062;-70
2023/09/11 03:58:46;;;;;;;6.32;5.38;;;;;;;;;;6349302;27;20106;-69
2023/09/11 04:01:50;;;;;;;8.52;6.03;;;;;;;;;;6364828;27;20046;-71
2023/09/11 04:04:52;;;;;;;9.40;3.55;;;;;;;;;;6369469;27;20491;-69
2023/09/11 04:07:55;;;;;;;9.02;5.78;;;;;;;;;;6367936;27;20579;-70
2023/09/11 04:10:57;;;;;;;7.50;6.80;;;;;;;;;;6388587;27;20074;-69
2023/09/11 04:13:59;;;;;;;10.20;6.50;;;;;;;;;;6392185;27;20124;-68
2023/09/11 04:17:01;;;;;;;8.55;6.43;;;;;;;;;;6360243;27;20043;-67
2023/09/11 04:20:05;;;;;;;9.15;6.45;;;;;;;;;;6357617;27;20074;-68
2023/09/11 04:23:07;;;;;;;7.38;6.63;;;;;;;;;;6363194;27;20115;-68
2023/09/11 04:26:09;;;;;;;8.43;7.00;;;;;;;;;;6365900;27;20026;-69
2023/09/11 04:29:11;;;;;;;13.63;6.82;;;;;;;;;;6368487;27;20153;-67
2023/09/11 04:32:17;;;;;;;8.55;7.50;;;;;;;;;;6358511;27;20050;-68
2023/09/11 04:35:20;;;;;;;5.60;4.65;;;;;;;;;;6364357;27;20551;-68
2023/09/11 04:38:22;;;;;;;9.80;7.20;;;;;;;;;;6370530;27;20073;-68
2023/09/11 04:41:24;;;;;;;9.35;6.75;;;;;;;;;;6351966;27;20523;-67
2023/09/11 04:44:27;;;;;;;12.80;7.55;;;;;;;;;;6353536;27;20046;-68
2023/09/11 04:47:31;;;;;;;9.82;8.90;;;;;;;;;;6363462;27;20057;-67
2023/09/11 04:50:34;;;;;;;;;;;;;;;;;;6368010;27;20062;-67
2023/09/11 04:53:37;;;;;;;9.65;7.70;;;;;;;;;;6357170;27;19923;-67
2023/09/11 04:56:40;;;;;;;10.65;6.85;;;;;;;;;;6387229;27;20069;-67
2023/09/11 04:59:42;;;;;;;11.00;8.85;;;;;;;;;;6383743;27;20042;-67
2023/09/11 05:02:46;;;;;;;10.05;8.00;;;;;;;;;;6361751;27;20039;-67
2023/09/11 05:05:49;;;;;;;10.20;7.78;;;;;;;;;;6377469;27;20051;-67
2023/09/11 05:08:51;;;;;;;11.13;7.43;;;;;;;;;;6352810;27;20058;-68
2023/09/11 05:12:14;;;;;;;14.93;8.57;;;;;;;;;;6388267;27;20054;-68
2023/09/11 05:15:16;;;;;;;9.02;7.63;;;;;;;;;;6359583;27;20508;-66
2023/09/11 05:18:18;;;;;;;8.02;6.90;;;;;;;;;;6381619;27;20158;-68
2023/09/11 05:21:20;;;;;;;7.78;6.55;;;;;;;;;;6376943;27;20138;-67
2023/09/11 05:24:22;;;;;;;8.18;6.65;;;;;;;;;;6380336;27;20035;-67
2023/09/11 05:27:24;;;;;;;9.55;8.02;;;;;;;;;;6385194;27;20054;-66
2023/09/11 05:30:26;;;;;;;9.15;7.68;;;;;;;;;;6366159;27;20075;-67
2023/09/11 05:33:28;;;;;;;10.48;8.18;;;;;;;;;;6376816;27;20070;-69
2023/09/11 05:36:30;;;;;;;7.63;6.88;;;;;;;;;;6384314;27;20058;-68
2023/09/11 05:39:33;;;;;;;10.10;6.60;;;;;;;;;;6374790;27;20047;-68
2023/09/11 05:42:35;;;;;;;10.48;9.10;;;;;;;;;;6382669;27;20071;-69
2023/09/11 05:45:37;;;;;;;14.98;7.18;;;;;;;;;;6376608;27;20045;-69
2023/09/11 05:48:39;;;;;;;12.35;9.18;;;;;;;;;;6382436;27;20043;-69
2023/09/11 05:51:41;;;;;;;15.35;7.65;;;;;;;;;;6382114;27;20061;-69
2023/09/11 05:54:44;;;;;;;10.75;7.38;;;;;;;;;;6376691;27;20046;-69
2023/09/11 05:57:46;;;;;;;7.18;6.32;;;;;;;;;;6379485;27;20051;-69
2023/09/11 06:00:48;;;;;;;9.50;6.70;;;;;;;;;;6364966;27;20038;-69
2023/09/11 06:03:50;;;;;;;6.88;6.18;;;;;;;;;;6386217;27;20046;-70
2023/09/11 06:06:52;;;;;;;8.18;7.07;;;;;;;;;;6378993;27;20054;-69
2023/09/11 06:09:54;;;;;;;7.88;3.95;;;;;;;;;;6368924;27;20455;-70
2023/09/11 06:12:57;;;;;;;9.30;6.68;;;;;;;;;;6353655;27;20053;-70
2023/09/11 06:15:59;;;;;;;13.10;6.55;;;;;;;;;;6376532;27;20089;-70
2023/09/11 06:19:01;;;;;;;8.75;6.53;;;;;;;;;;6374442;27;20043;-70
2023/09/11 06:22:03;;;;;;;7.68;5.30;;;;;;;;;;6388023;27;20043;-70
2023/09/11 06:25:07;;;;;;;7.55;6.40;;;;;;;;;;6383947;27;20042;-70
2023/09/11 06:28:09;;;;;;;11.25;6.10;;;;;;;;;;6379058;27;20038;-69
2023/09/11 06:31:11;;;;;;;10.73;5.57;;;;;;;;;;6383354;27;20043;-70
2023/09/11 06:34:13;;;;;;;7.38;6.10;;;;;;;;;;6377779;27;20066;-70
2023/09/11 06:37:15;;;;;;;9.55;3.70;;;;;;;;;;6378997;27;20596;-70
2023/09/11 06:40:17;;;;;;;6.60;3.33;;;;;;;;;;6378840;27;20417;-69
2023/09/11 06:43:19;;;;;;;10.63;5.57;;;;;;;;;;6377490;27;20043;-68
2023/09/11 06:46:22;;;;;;;8.20;5.32;;;;;;;;;;6379584;27;20699;-70
2023/09/11 06:49:24;;;;;;;6.35;5.72;;;;;;;;;;6381903;27;20051;-70
2023/09/11 06:52:26;;;;;;;10.45;7.00;;;;;;;;;;6380485;27;20493;-71
2023/09/11 06:55:28;;;;;;;7.65;5.70;;;;;;;;;;6388327;27;20582;-72
2023/09/11 06:58:30;;;;;;;6.82;5.75;;;;;;;;;;6377782;27;20053;-71
2023/09/11 07:01:38;;;;;;;9.00;4.45;;;;;;;;;;6383265;27;20047;-71
2023/09/11 07:04:40;;;;;;;7.18;3.10;;;;;;;;;;6377966;27;20208;-71
2023/09/11 07:07:42;;;;;;;5.05;2.53;;;;;;;;;;6382522;27;20461;-70
2023/09/11 07:10:49;;;;;;;7.85;2.28;;;;;;;;;;6371487;27;20058;-70
2023/09/11 07:13:54;;;;;;;6.53;5.22;;;;;;;;;;6379086;27;20051;-70
2023/09/11 07:17:00;;;;;;;6.47;4.88;;;;;;;;;;6378582;27;20108;-70
2023/09/11 07:20:04;;;;;;;13.25;5.10;;;;;;;;;;6374176;27;20164;-71
2023/09/11 07:23:06;;;;;;;5.03;2.25;;;;;;;;;;6373790;27;20433;-71
2023/09/11 07:26:08;;;;;;;6.70;4.57;;;;;;;;;;6373397;27;20057;-71
2023/09/11 07:29:11;;;;;;;5.88;4.25;;;;;;;;;;6375452;27;20039;-71
2023/09/11 07:32:14;;;;;;;4.72;2.88;;;;;;;;;;6378560;27;20041;-70
2023/09/11 07:35:16;;;;;;;6.57;2.42;;;;;;;;;;6388363;27;20126;-71
2023/09/11 07:38:18;;;;;;;5.82;2.20;;;;;;;;;;6372212;27;20377;-70
2023/09/11 07:41:21;;;;;;;9.10;2.58;;;;;;;;;;6375642;27;20042;-70
2023/09/11 07:44:23;;;;;;;9.98;5.53;;;;;;;;;;6364856;27;20500;-71
2023/09/11 07:47:25;;;;;;;9.35;4.88;;;;;;;;;;6386773;27;20034;-70
2023/09/11 07:50:28;;;;;;;6.22;4.20;;;;;;;;;;6386762;27;20054;-70
2023/09/11 07:53:30;;;;;;;5.53;3.90;;;;;;;;;;6381593;27;20038;-71
2023/09/11 07:56:33;;;;;;;20.60;2.92;;;;;;;;;;6373226;27;20535;-71
2023/09/11 07:59:35;;;;;;;3.13;1.80;;;;;;;;;;6385244;27;20047;-68
2023/09/11 08:02:37;;;;;;;5.95;2.13;;;;;;;;;;6384108;27;20038;-71
2023/09/11 08:05:39;;;;;;;7.78;2.45;;;;;;;;;;6382843;27;20051;-71
2023/09/11 08:08:41;;;;;;;6.85;2.58;;;;;;;;;;6382829;27;20050;-71
2023/09/11 08:11:44;;;;;;;5.75;4.57;;;;;;;;;;6384586;27;20043;-70
2023/09/11 08:14:46;;;;;;;8.57;3.65;;;;;;;;;;6376773;27;20180;-67
2023/09/11 08:17:48;;;;;;;7.38;2.70;;;;;;;;;;6377361;27;20054;-71
2023/09/11 08:20:51;;;;;;;4.68;3.67;;;;;;;;;;6378817;27;20412;-70
2023/09/11 08:23:53;;;;;;;8.15;2.13;;;;;;;;;;6358803;27;20043;-70
2023/09/11 08:26:55;;;;;;;5.28;2.45;;;;;;;;;;6376666;27;20055;-71
2023/09/11 08:29:58;;;;;;;7.13;2.15;;;;;;;;;;6378339;27;20054;-71
2023/09/11 08:33:02;;;;;;;7.18;2.00;;;;;;;;;;6384459;27;20047;-71
2023/09/11 08:36:05;;;;;;;5.90;2.33;;;;;;;;;;6381676;27;20034;-71
2023/09/11 08:39:07;;;;;;;3.78;1.90;;;;;;;;;;6381816;27;20091;-71
2023/09/11 08:42:10;;;;;;;5.95;2.28;;;;;;;;;;6363829;27;20050;-71
2023/09/11 08:45:12;;;;;;;6.15;3.90;;;;;;;;;;6389130;27;20050;-71
2023/09/11 08:48:15;;;;;;;6.85;2.60;;;;;;;;;;6386767;27;20425;-72
2023/09/11 08:51:23;;;;;;;7.07;3.78;;;;;;;;;;6389011;27;20046;-71
2023/09/11 08:54:31;;;;;;;5.75;1.75;;;;;;;;;;6347608;27;20099;-71
2023/09/11 08:57:34;;;;;;;4.15;2.28;;;;;;;;;;6379048;27;20042;-71
2023/09/11 09:00:36;;;;;;;6.88;3.97;;;;;;;;;;6384422;27;20086;-72
2023/09/11 09:03:40;;;;;;;7.53;2.03;;;;;;;;;;6386753;27;20038;-69
2023/09/11 09:06:44;;;;;;;64.93;10.43;;;;;;;;;;6366947;27;20042;-72
2023/09/11 09:09:47;;;;;;;6.00;2.65;;;;;;;;;;6386436;27;20149;-72
2023/09/11 09:12:50;;;;;;;5.50;1.88;;;;;;;;;;6381586;27;20049;-72
2023/09/11 09:15:52;;;;;;;5.47;1.92;;;;;;;;;;6385658;27;20042;-71
2023/09/11 09:18:54;;;;;;;4.38;2.42;;;;;;;;;;6378104;27;20085;-72
2023/09/11 09:22:16;;;;;;;5.00;3.47;;;;;;;;;;6364541;27;20171;-72
2023/09/11 09:25:18;;;;;;;5.07;2.67;;;;;;;;;;6382813;27;20042;-73
2023/09/11 09:28:28;;;;;;;6.30;3.10;;;;;;;;;;6367727;27;20055;-71
2023/09/11 09:31:33;;;;;;;7.32;1.85;;;;;;;;;;6379189;27;21286;-72
2023/09/11 09:34:37;;;;;;;5.32;2.28;;;;;;;;;;6368664;27;20133;-73
2023/09/11 09:37:39;;;;;;;4.57;2.30;;;;;;;;;;6363949;27;20125;-73
2023/09/11 09:40:42;;;;;;;5.03;3.30;;;;;;;;;;6367112;27;20050;-73
2023/09/11 09:43:54;;;;;;;8.75;2.92;;;;;;;;;;6363820;27;20157;-71
2023/09/11 09:46:56;;;;;;;7.28;4.05;;;;;;;;;;6351989;27;20047;-72
2023/09/11 09:50:01;;;;;;;7.20;4.40;;;;;;;;;;6362871;27;20031;-72
2023/09/11 09:53:07;;;;;;;6.07;4.40;;;;;;;;;;6379836;27;20069;-71
2023/09/11 09:56:11;;;;;;;6.40;3.58;;;;;;;;;;6351605;27;20042;-69
2023/09/11 09:59:22;;;;;;;7.35;3.95;;;;;;;;;;6387184;27;20038;-71
2023/09/11 10:02:32;;;;;;;5.88;3.80;;;;;;;;;;6375556;27;20049;-71
2023/09/11 10:05:34;;;;;;;5.68;3.50;;;;;;;;;;6377543;27;20039;-71
2023/09/11 10:08:37;;;;;;;6.90;3.28;;;;;;;;;;6363717;27;20039;-71
2023/09/11 10:11:40;;;;;;;6.88;3.15;;;;;;;;;;6375437;27;20050;-69
2023/09/11 10:14:43;;;;;;;5.20;2.63;;;;;;;;;;6378661;27;20267;-70
2023/09/11 10:17:45;;;;;;;7.30;3.00;;;;;;;;;;6364737;27;20050;-70
2023/09/11 10:20:47;;;;;;;6.15;3.05;;;;;;;;;;6376792;27;20078;-70
2023/09/11 10:23:50;;;;;;;7.47;2.13;;;;;;;;;;6383738;27;20383;-70
2023/09/11 10:26:58;;;;;;;5.68;2.72;;;;;;;;;;6356019;27;20532;-70
2023/09/11 10:30:04;;;;;;;12.40;3.88;;;;;;;;;;6378750;27;20129;-70
2023/09/11 10:33:22;;;;;;;10.25;2.75;;;;;;;;;;6358343;27;20031;-70
2023/09/11 10:36:27;;;;;;;5.95;3.35;;;;;;;;;;6372483;27;20077;-72
2023/09/11 10:39:29;;;;;;;7.30;3.70;;;;;;;;;;6364400;27;20058;-72
2023/09/11 10:42:32;;;;;;;5.78;3.28;;;;;;;;;;6374831;27;20043;-71
2023/09/11 10:45:34;;;;;;;5.32;3.47;;;;;;;;;;6376102;27;20270;-70
2023/09/11 10:48:37;;;;;;;7.35;2.92;;;;;;;;;;6384076;27;20448;-70
2023/09/11 10:51:39;;;;;;;6.97;2.83;;;;;;;;;;6366720;27;20051;-71
2023/09/11 10:54:42;;;;;;;4.72;1.70;;;;;;;;;;6373153;27;20471;-70
2023/09/11 10:57:44;;;;;;;4.13;2.05;;;;;;;;;;6387096;27;20047;-70
2023/09/11 11:00:46;;;;;;;6.13;1.50;;;;;;;;;;6370433;27;20402;-70
2023/09/11 11:03:48;;;;;;;5.85;2.72;;;;;;;;;;6363409;27;20062;-72
2023/09/11 11:06:55;;;;;;;4.53;2.80;;;;;;;;;;6378852;27;20066;-72
2023/09/11 11:10:01;;;;;;;5.75;2.38;;;;;;;;;;6383987;27;20050;-73
2023/09/11 11:13:08;;;;;;;5.00;2.35;;;;;;;;;;6371791;27;20066;-69
2023/09/11 11:16:37;;;;;;;5.70;2.67;;;;;;;;;;6370653;27;20118;-70
2023/09/11 11:19:46;;;;;;;5.55;2.30;;;;;;;;;;6371061;27;20133;-70
2023/09/11 11:22:48;;;;;;;6.47;2.50;;;;;;;;;;6365735;27;20588;-70
2023/09/11 11:25:50;;;;;;;7.18;3.30;;;;;;;;;;6380629;27;20031;-70
2023/09/11 11:28:52;;;;;;;6.35;3.17;;;;;;;;;;6382332;27;20055;-71
2023/09/11 11:31:57;;;;;;;5.40;2.67;;;;;;;;;;6372815;27;20046;-70
2023/09/11 11:35:07;;;;;;;4.60;2.70;;;;;;;;;;6362785;27;20104;-70
2023/09/11 11:38:14;;;;;;;5.65;2.75;;;;;;;;;;6376234;27;20099;-70
2023/09/11 11:41:16;;;;;;;4.78;3.50;;;;;;;;;;6359050;27;20051;-71
2023/09/11 11:44:18;;;;;;;4.45;2.45;;;;;;;;;;6358601;27;20035;-70
2023/09/11 11:47:22;;;;;;;6.15;2.30;;;;;;;;;;6384138;27;20042;-70
2023/09/11 11:50:24;;;;;;;3.60;1.05;;;;;;;;;;6374883;27;20928;-70
2023/09/11 11:53:26;;;;;;;5.03;3.33;;;;;;;;;;6386857;27;20058;-70
2023/09/11 11:56:28;;;;;;;6.22;2.47;;;;;;;;;;6376619;27;20066;-70
2023/09/11 11:59:30;;;;;;;3.92;1.67;;;;;;;;;;6384905;27;20410;-70
2023/09/11 12:02:32;;;;;;;4.55;2.67;;;;;;;;;;6376557;27;20047;-71
2023/09/11 12:05:35;;;;;;;6.13;2.58;;;;;;;;;;6384492;27;20076;-71
2023/09/11 12:08:37;;;;;;;3.58;2.50;;;;;;;;;;6385616;27;20101;-71
2023/09/11 12:11:40;;;;;;;3.75;2.35;;;;;;;;;;6384263;27;20447;-71
2023/09/11 12:14:42;;;;;;;5.15;2.60;;;;;;;;;;6360756;27;20039;-70
2023/09/11 12:17:46;;;;;;;5.85;2.50;;;;;;;;;;6386241;27;20439;-68
2023/09/11 12:21:03;;;;;;;4.07;2.83;;;;;;;;;;6384412;27;20057;-70
2023/09/11 12:24:09;;;;;;;7.47;3.55;;;;;;;;;;6361619;27;20055;-69
2023/09/11 12:27:11;;;;;;;5.18;1.90;;;;;;;;;;6385668;27;20448;-70
2023/09/11 12:30:14;;;;;;;6.72;2.88;;;;;;;;;;6382292;27;20039;-71
2023/09/11 12:33:24;;;;;;;5.35;2.33;;;;;;;;;;6385034;27;20138;-71
2023/09/11 12:36:27;;;;;;;8.73;2.60;;;;;;;;;;6380778;27;20062;-71
2023/09/11 12:39:30;;;;;;;6.03;2.92;;;;;;;;;;6379093;27;20046;-71
2023/09/11 12:42:33;;;;;;;4.45;2.47;;;;;;;;;;6346578;27;20039;-71
2023/09/11 12:45:36;;;;;;;4.32;2.60;;;;;;;;;;6363566;27;20039;-71
2023/09/11 12:48:44;;;;;;;5.22;2.65;;;;;;;;;;6362332;27;20043;-71
2023/09/11 12:51:47;;;;;;;5.20;2.63;;;;;;;;;;6383453;27;20046;-70
2023/09/11 12:54:49;;;;;;;4.07;2.63;;;;;;;;;;6384825;27;20047;-70
2023/09/11 12:57:55;;;;;;;4.68;2.90;;;;;;;;;;6386613;27;20046;-70
2023/09/11 13:00:57;;;;;;;4.93;1.40;;;;;;;;;;6375103;27;20757;-70
2023/09/11 13:03:59;;;;;;;7.13;3.35;;;;;;;;;;6378300;27;20065;-70
2023/09/11 13:07:02;;;;;;;8.20;2.45;;;;;;;;;;6380516;27;20047;-71
2023/09/11 13:10:05;;;;;;;3.40;2.35;;;;;;;;;;6385592;27;20039;-71
2023/09/11 13:13:07;;;;;;;4.28;3.25;;;;;;;;;;6385716;27;20070;-71
2023/09/11 13:16:16;;;;;;;5.28;2.30;;;;;;;;;;6381442;27;20307;-71
2023/09/11 13:19:18;;;;;;;8.05;1.42;;;;;;;;;;6356984;27;20563;-71
2023/09/11 13:22:20;;;;;;;4.75;2.47;;;;;;;;;;6381498;27;20109;-71
2023/09/11 13:25:22;;;;;;;3.97;2.20;;;;;;;;;;6385673;27;20043;-71
2023/09/11 13:28:24;;;;;;;7.97;2.38;;;;;;;;;;6387933;27;20046;-71
2023/09/11 13:31:27;;;;;;;4.97;2.40;;;;;;;;;;6386539;27;20055;-71
2023/09/11 13:34:31;;;;;;;7.85;2.67;;;;;;;;;;6383128;27;20050;-71
2023/09/11 13:37:33;;;;;;;4.45;1.70;;;;;;;;;;6382004;27;20531;-71
2023/09/11 13:40:35;;;;;;;10.57;2.70;;;;;;;;;;6367335;27;20070;-71
2023/09/11 13:43:37;;;;;;;3.55;2.40;;;;;;;;;;6376604;27;20047;-71
2023/09/11 13:46:40;;;;;;;6.10;2.50;;;;;;;;;;6381938;27;20043;-71
2023/09/11 13:49:42;;;;;;;8.35;3.25;;;;;;;;;;6388055;27;20120;-71
2023/09/11 13:52:44;;;;;;;6.10;2.75;;;;;;;;;;6388144;27;20043;-71
2023/09/11 13:55:46;;;;;;;6.43;3.13;;;;;;;;;;6385837;27;20553;-71
2023/09/11 13:58:48;;;;;;;7.82;2.55;;;;;;;;;;6387640;27;20045;-71
2023/09/11 14:01:51;;;;;;;5.95;2.38;;;;;;;;;;6380135;27;20049;-70
2023/09/11 14:04:54;;;;;;;5.03;2.75;;;;;;;;;;6383906;27;20035;-70
2023/09/11 14:07:56;;;;;;;6.78;2.85;;;;;;;;;;6384832;27;20040;-70
2023/09/11 14:10:58;;;;;;;5.65;2.40;;;;;;;;;;6384085;27;20114;-70
2023/09/11 14:14:00;;;;;;;4.57;2.42;;;;;;;;;;6377342;27;20045;-70
2023/09/11 14:17:02;;;;;;;5.25;2.53;;;;;;;;;;6388497;27;20477;-70
2023/09/11 14:20:07;;;;;;;5.13;2.30;;;;;;;;;;6372736;27;20578;-71
2023/09/11 14:23:09;;;;;;;5.70;3.10;;;;;;;;;;6385031;27;20057;-70
2023/09/11 14:26:12;;;;;;;6.15;2.67;;;;;;;;;;6375863;27;20152;-71
2023/09/11 14:29:14;;;;;;;4.25;1.45;;;;;;;;;;6385578;27;20444;-71
2023/09/11 14:32:16;;;;;;;4.30;2.42;;;;;;;;;;6379993;27;20039;-70
2023/09/11 14:35:18;;;;;;;5.18;2.58;;;;;;;;;;6365257;27;20615;-69
2023/09/11 14:38:20;;;;;;;6.32;2.58;;;;;;;;;;6374830;27;20059;-71
2023/09/11 14:41:22;;;;;;;4.60;2.35;;;;;;;;;;6354423;27;20072;-71
2023/09/11 14:44:24;;;;;;;5.38;2.60;;;;;;;;;;6376579;27;20030;-71
2023/09/11 14:47:27;;;;;;;4.15;1.23;;;;;;;;;;6378384;27;20555;-71
2023/09/11 14:50:29;;;;;;;4.63;2.20;;;;;;;;;;6379810;27;20047;-70
2023/09/11 14:53:39;;;;;;;3.97;2.95;;;;;;;;;;6370375;27;20039;-71
2023/09/11 14:56:41;;;;;;;7.43;3.13;;;;;;;;;;6377552;27;20046;-70
2023/09/11 14:59:44;;;;;;;5.22;2.53;;;;;;;;;;6384869;27;20445;-69
2023/09/11 15:02:46;;;;;;;9.98;5.40;;;;;;;;;;6369213;27;20043;-71
2023/09/11 15:05:48;;;;;;;5.57;2.75;;;;;;;;;;6374738;27;20047;-70
2023/09/11 15:08:51;;;;;;;4.80;2.78;;;;;;;;;;6377468;27;20050;-71
2023/09/11 15:11:53;;;;;;;5.38;2.65;;;;;;;;;;6387143;27;20537;-71
2023/09/11 15:14:55;;;;;;;5.63;2.63;;;;;;;;;;6381448;27;20042;-69
2023/09/11 15:17:57;;;;;;;4.57;2.80;;;;;;;;;;6380758;27;20038;-69
2023/09/11 15:20:59;;;;;;;8.00;4.35;;;;;;;;;;6376445;27;20070;-69
2023/09/11 15:24:02;;;;;;;4.30;3.22;;;;;;;;;;6377303;27;20468;-70
2023/09/11 15:27:06;;;;;;;8.63;2.75;;;;;;;;;;6375842;27;20039;-70
2023/09/11 15:30:08;;;;;;;3.03;1.77;;;;;;;;;;6376930;27;20070;-71
2023/09/11 15:33:12;;;;;;;7.53;3.58;;;;;;;;;;6375870;27;20070;-71
2023/09/11 15:36:14;;;;;;;4.00;2.53;;;;;;;;;;6358289;27;20031;-71
2023/09/11 15:39:16;;;;;;;6.45;2.55;;;;;;;;;;6362742;27;20042;-71
2023/09/11 15:42:18;;;;;;;6.00;1.98;;;;;;;;;;6384135;27;20053;-71
2023/09/11 15:45:23;;;;;;;5.47;2.42;;;;;;;;;;6365732;27;20054;-71
2023/09/11 15:48:26;;;;;;;4.15;2.38;;;;;;;;;;6378527;27;20456;-71
2023/09/11 15:51:28;;;;;;;4.90;1.83;;;;;;;;;;6383016;27;20662;-71
2023/09/11 15:54:30;;;;;;;3.55;1.77;;;;;;;;;;6387594;27;20464;-71
2023/09/11 15:57:32;;;;;;;3.38;0.95;;;;;;;;;;6381604;27;20485;-69
2023/09/11 16:00:35;;;;;;;3.75;1.27;;;;;;;;;;6368211;27;20448;-70
2023/09/11 16:03:38;;;;;;;8.80;2.55;;;;;;;;;;6374527;27;20043;-72
2023/09/11 16:06:40;;;;;;;3.72;2.47;;;;;;;;;;6387513;27;20046;-71
2023/09/11 16:09:42;;;;;;;4.20;2.78;;;;;;;;;;6367685;27;20743;-72
2023/09/11 16:12:44;;;;;;;3.72;2.58;;;;;;;;;;6379689;27;20050;-72
2023/09/11 16:15:46;;;;;;;4.80;2.65;;;;;;;;;;6387313;27;20046;-72
2023/09/11 16:18:48;;;;;;;3.28;1.20;;;;;;;;;;6371072;27;20913;-70
2023/09/11 16:21:50;;;;;;;48.38;6.28;;;;;;;;;;6372292;27;20062;-71
2023/09/11 16:24:52;;;;;;;11.63;3.33;;;;;;;;;;6376284;27;20054;-71
2023/09/11 16:27:54;;;;;;;4.18;1.92;;;;;;;;;;6373737;27;20073;-71
2023/09/11 16:30:56;;;;;;;6.57;2.95;;;;;;;;;;6375526;27;20522;-70
2023/09/11 16:33:59;;;;;;;5.43;2.08;;;;;;;;;;6374415;27;20035;-71
2023/09/11 16:37:02;;;;;;;4.13;1.73;;;;;;;;;;6372303;27;20047;-71
2023/09/11 16:40:08;;;;;;;4.07;2.67;;;;;;;;;;6369223;27;20138;-71
2023/09/11 16:43:10;;;;;;;5.00;2.60;;;;;;;;;;6374934;27;20074;-70
2023/09/11 16:46:12;;;;;;;5.60;2.17;;;;;;;;;;6376872;27;20067;-71
2023/09/11 16:49:17;;;;;;;6.90;3.05;;;;;;;;;;6369425;27;20081;-71
2023/09/11 16:52:18;;;;;;;;;;;;;;;;;;6367861;27;20046;-71
2023/09/11 16:55:20;;;;;;;5.50;2.40;;;;;;;;;;6382158;27;19931;-71
2023/09/11 16:58:23;;;;;;;5.15;2.42;;;;;;;;;;6355543;27;20043;-69
2023/09/11 17:01:25;;;;;;;5.00;3.22;;;;;;;;;;6364233;27;20050;-70
2023/09/11 17:04:27;;;;;;;6.20;3.33;;;;;;;;;;6384088;27;20445;-70
2023/09/11 17:07:29;;;;;;;5.90;3.83;;;;;;;;;;6380243;27;20113;-70
2023/09/11 17:10:31;;;;;;;6.47;4.22;;;;;;;;;;6385638;27;20054;-71
2023/09/11 17:13:34;;;;;;;8.48;4.10;;;;;;;;;;6382414;27;20047;-69
2023/09/11 17:16:36;;;;;;;10.10;4.07;;;;;;;;;;6361888;27;20779;-69
2023/09/11 17:19:38;;;;;;;8.73;2.47;;;;;;;;;;6379668;27;20120;-70
2023/09/11 17:22:41;;;;;;;5.53;2.58;;;;;;;;;;6382507;27;20802;-69
2023/09/11 17:25:43;;;;;;;4.18;2.95;;;;;;;;;;6380423;27;20035;-71
2023/09/11 17:28:45;;;;;;;5.82;2.05;;;;;;;;;;6388658;27;20053;-70
2023/09/11 17:31:47;;;;;;;7.75;4.35;;;;;;;;;;6377087;27;20050;-70
2023/09/11 17:34:50;;;;;;;4.75;3.17;;;;;;;;;;6383474;27;20126;-71
2023/09/11 17:37:52;;;;;;;6.85;3.60;;;;;;;;;;6378545;27;20038;-68
2023/09/11 17:40:54;;;;;;;5.32;3.50;;;;;;;;;;6382073;27;20133;-70
2023/09/11 17:43:56;;;;;;;4.45;3.33;;;;;;;;;;6379026;27;20054;-71
2023/09/11 17:46:58;;;;;;;6.53;3.63;;;;;;;;;;6376711;27;20041;-71
2023/09/11 17:50:00;;;;;;;6.13;5.10;;;;;;;;;;6383937;27;20053;-71
2023/09/11 17:53:02;;;;;;;8.93;3.83;;;;;;;;;;6377572;27;20066;-71
2023/09/11 17:56:04;;;;;;;7.97;4.22;;;;;;;;;;6357186;27;20122;-71
2023/09/11 17:59:07;;;;;;;6.40;3.30;;;;;;;;;;6380180;27;20541;-71
2023/09/11 18:02:09;;;;;;;5.60;3.30;;;;;;;;;;6386358;27;20042;-71
2023/09/11 18:05:11;;;;;;;10.13;4.18;;;;;;;;;;6376381;27;20111;-70
2023/09/11 18:08:13;;;;;;;7.78;3.90;;;;;;;;;;6383605;27;20049;-70
2023/09/11 18:11:15;;;;;;;7.07;3.65;;;;;;;;;;6378057;27;20584;-70
2023/09/11 18:14:17;;;;;;;8.30;3.95;;;;;;;;;;6385996;27;20532;-70
2023/09/11 18:17:19;;;;;;;8.23;4.50;;;;;;;;;;6357223;27;20433;-68
2023/09/11 18:20:21;;;;;;;6.22;3.72;;;;;;;;;;6383067;27;20130;-71